createdAt,value
2024-05-09T00:00:29.707Z,37.22
2024-05-09T00:01:21.172Z,37.25
2024-05-09T00:02:20.040Z,37.21
2024-05-09T00:03:20.126Z,37.20
2024-05-09T00:04:20.095Z,37.21
2024-05-09T00:05:20.133Z,37.21
2024-05-09T00:06:20.061Z,37.21
2024-05-09T00:07:20.031Z,37.17
2024-05-09T00:08:20.019Z,37.21
2024-05-09T00:09:20.018Z,37.21
2024-05-09T00:10:25.581Z,37.17
2024-05-09T00:11:21.322Z,37.21
2024-05-09T00:12:20.166Z,37.19
2024-05-09T00:13:20.024Z,37.17
2024-05-09T00:14:20.097Z,37.20
2024-05-09T00:15:20.032Z,37.22
2024-05-09T00:16:20.028Z,37.13
2024-05-09T00:17:20.174Z,37.21
2024-05-09T00:18:20.242Z,37.16
2024-05-09T00:19:20.271Z,37.16
2024-05-09T00:20:24.504Z,37.17
2024-05-09T00:21:21.060Z,37.17
2024-05-09T00:22:20.061Z,37.16
2024-05-09T00:23:20.116Z,37.12
2024-05-09T00:24:20.091Z,37.17
2024-05-09T00:25:20.060Z,37.13
2024-05-09T00:26:20.104Z,37.20
2024-05-09T00:27:20.122Z,37.18
2024-05-09T00:28:20.094Z,37.16
2024-05-09T00:29:20.163Z,37.17
2024-05-09T00:30:27.805Z,37.17
2024-05-09T00:31:21.064Z,37.12
2024-05-09T00:32:20.239Z,37.15
2024-05-09T00:33:20.358Z,37.10
2024-05-09T00:34:20.259Z,37.08
2024-05-09T00:35:20.163Z,37.06
2024-05-09T00:36:20.126Z,37.05
2024-05-09T00:37:20.115Z,37.10
2024-05-09T00:38:20.149Z,37.07
2024-05-09T00:39:20.094Z,37.03
2024-05-09T00:40:27.268Z,37.05
2024-05-09T00:41:21.221Z,37.09
2024-05-09T00:42:20.128Z,37.06
2024-05-09T00:43:20.153Z,37.06
2024-05-09T00:44:20.187Z,37.04
2024-05-09T00:45:20.142Z,37.07
2024-05-09T00:46:20.171Z,37.10
2024-05-09T00:47:20.359Z,37.01
2024-05-09T00:48:21.560Z,37.07
2024-05-09T00:49:20.281Z,37.07
2024-05-09T00:50:29.364Z,37.07
2024-05-09T00:51:21.292Z,37.04
2024-05-09T00:52:20.235Z,37.07
2024-05-09T00:53:20.300Z,37.07
2024-05-09T00:54:20.235Z,37.06
2024-05-09T00:55:20.228Z,37.09
2024-05-09T00:56:20.291Z,37.11
2024-05-09T00:57:20.269Z,37.06
2024-05-09T00:58:20.276Z,37.10
2024-05-09T00:59:20.312Z,37.06
2024-05-09T01:00:26.944Z,37.08
2024-05-09T01:01:21.297Z,37.07
2024-05-09T01:02:20.327Z,37.04
2024-05-09T01:03:20.542Z,37.04
2024-05-09T01:04:20.315Z,37.06
2024-05-09T01:05:20.332Z,37.02
2024-05-09T01:06:20.291Z,36.99
2024-05-09T01:07:20.350Z,37.04
2024-05-09T01:08:20.360Z,37.07
2024-05-09T01:09:20.305Z,37.03
2024-05-09T01:10:27.494Z,37.02
2024-05-09T01:11:21.440Z,37.02
2024-05-09T01:12:20.463Z,37.04
2024-05-09T01:13:20.324Z,36.98
2024-05-09T01:14:20.421Z,36.98
2024-05-09T01:15:20.323Z,37.01
2024-05-09T01:16:20.340Z,37.01
2024-05-09T01:17:20.430Z,36.97
2024-05-09T01:18:20.563Z,36.97
2024-05-09T01:19:20.554Z,36.94
2024-05-09T01:20:31.537Z,36.93
2024-05-09T01:21:21.507Z,36.94
2024-05-09T01:22:20.629Z,36.97
2024-05-09T01:23:20.444Z,37.02
2024-05-09T01:24:20.428Z,37.02
2024-05-09T01:25:20.439Z,36.97
2024-05-09T01:26:20.468Z,36.93
2024-05-09T01:27:20.476Z,36.94
2024-05-09T01:28:20.506Z,36.93
2024-05-09T01:29:20.554Z,36.92
2024-05-09T01:31:20.482Z,36.98
2024-05-09T01:32:20.614Z,36.98
2024-05-09T01:33:20.734Z,36.91
2024-05-09T01:34:20.563Z,36.96
2024-05-09T01:35:20.577Z,36.91
2024-05-09T01:36:20.541Z,36.92
2024-05-09T01:37:20.653Z,36.96
2024-05-09T01:38:20.621Z,36.92
2024-05-09T01:39:20.558Z,36.96
2024-05-09T01:40:25.375Z,36.93
2024-05-09T01:41:21.620Z,36.93
2024-05-09T01:42:20.578Z,36.91
2024-05-09T01:43:20.603Z,36.92
2024-05-09T01:44:20.623Z,36.92
2024-05-09T01:45:20.620Z,36.88
2024-05-09T01:46:20.611Z,36.91
2024-05-09T01:47:20.894Z,36.93
2024-05-09T01:48:20.691Z,36.88
2024-05-09T01:49:20.692Z,36.90
2024-05-09T01:51:20.692Z,36.86
2024-05-09T01:52:20.649Z,36.89
2024-05-09T01:53:20.672Z,36.88
2024-05-09T01:54:20.663Z,36.88
2024-05-09T01:55:20.673Z,36.92
2024-05-09T01:56:20.733Z,36.84
2024-05-09T01:57:21.154Z,36.92
2024-05-09T01:58:20.799Z,36.89
2024-05-09T01:59:20.753Z,36.89
2024-05-09T02:01:20.824Z,36.87
2024-05-09T02:02:20.959Z,36.92
2024-05-09T02:03:20.861Z,36.86
2024-05-09T02:04:20.991Z,36.84
2024-05-09T02:05:20.900Z,36.88
2024-05-09T02:06:20.748Z,36.89
2024-05-09T02:07:20.757Z,36.86
2024-05-09T02:08:21.106Z,36.85
2024-05-09T02:09:20.773Z,36.89
2024-05-09T02:10:26.342Z,36.90
2024-05-09T02:11:21.887Z,36.88
2024-05-09T02:13:20.864Z,36.85
2024-05-09T02:14:20.931Z,36.85
2024-05-09T02:15:20.787Z,36.82
2024-05-09T02:16:20.791Z,36.86
2024-05-09T02:17:21.001Z,36.88
2024-05-09T02:18:21.147Z,36.81
2024-05-09T02:19:21.020Z,36.80
2024-05-09T02:20:29.778Z,36.85
2024-05-09T02:21:21.860Z,36.86
2024-05-09T02:22:20.829Z,36.85
2024-05-09T02:23:20.910Z,36.84
2024-05-09T02:24:20.839Z,36.91
2024-05-09T02:25:20.874Z,36.81
2024-05-09T02:26:20.877Z,36.91
2024-05-09T02:27:20.899Z,36.90
2024-05-09T02:28:20.866Z,36.85
2024-05-09T02:29:20.951Z,36.85
2024-05-09T02:30:26.364Z,36.87
2024-05-09T02:31:21.923Z,36.85
2024-05-09T02:32:21.316Z,36.87
2024-05-09T02:33:21.142Z,36.87
2024-05-09T02:34:21.010Z,36.85
2024-05-09T02:35:21.032Z,36.81
2024-05-09T02:36:20.975Z,36.81
2024-05-09T02:37:20.959Z,36.85
2024-05-09T02:39:20.983Z,36.82
2024-05-09T02:40:25.756Z,36.86
2024-05-09T02:41:22.020Z,36.87
2024-05-09T02:42:21.049Z,36.86
2024-05-09T02:43:21.003Z,36.87
2024-05-09T02:44:21.146Z,36.82
2024-05-09T02:45:21.083Z,36.83
2024-05-09T02:46:20.986Z,36.82
2024-05-09T02:47:21.168Z,36.87
2024-05-09T02:48:21.176Z,36.88
2024-05-09T02:49:21.384Z,36.88
2024-05-09T02:51:21.249Z,36.85
2024-05-09T02:52:21.181Z,36.87
2024-05-09T02:53:21.058Z,36.88
2024-05-09T02:54:21.152Z,36.90
2024-05-09T02:55:21.110Z,36.88
2024-05-09T02:56:21.064Z,36.92
2024-05-09T02:57:21.059Z,36.93
2024-05-09T02:58:21.072Z,36.90
2024-05-09T02:59:21.305Z,36.87
2024-05-09T03:00:26.454Z,36.87
2024-05-09T03:01:22.078Z,36.93
2024-05-09T03:02:21.315Z,36.89
2024-05-09T03:03:21.209Z,36.84
2024-05-09T03:04:21.195Z,36.87
2024-05-09T03:05:21.190Z,36.83
2024-05-09T03:06:21.158Z,36.80
2024-05-09T03:07:21.192Z,36.85
2024-05-09T03:08:21.328Z,36.84
2024-05-09T03:09:21.130Z,36.83
2024-05-09T03:10:25.428Z,36.84
2024-05-09T03:11:22.239Z,36.84
2024-05-09T03:12:21.208Z,36.81
2024-05-09T03:13:21.124Z,36.83
2024-05-09T03:14:21.254Z,36.82
2024-05-09T03:15:21.216Z,36.79
2024-05-09T03:16:21.139Z,36.81
2024-05-09T03:17:21.223Z,36.78
2024-05-09T03:18:21.380Z,36.83
2024-05-09T03:19:21.481Z,36.84
2024-05-09T03:20:27.292Z,36.85
2024-05-09T03:21:22.191Z,36.84
2024-05-09T03:22:21.234Z,36.84
2024-05-09T03:23:21.257Z,36.89
2024-05-09T03:24:21.254Z,36.86
2024-05-09T03:25:21.225Z,36.87
2024-05-09T03:26:21.222Z,36.81
2024-05-09T03:27:21.317Z,36.84
2024-05-09T03:28:21.263Z,36.80
2024-05-09T03:29:21.288Z,36.84
2024-05-09T03:30:28.714Z,36.82
2024-05-09T03:31:22.268Z,36.81
2024-05-09T03:32:21.501Z,36.81
2024-05-09T03:33:21.827Z,36.78
2024-05-09T03:34:21.335Z,36.79
2024-05-09T03:35:21.328Z,36.81
2024-05-09T03:36:21.326Z,36.81
2024-05-09T03:37:21.328Z,36.80
2024-05-09T03:38:21.372Z,36.78
2024-05-09T03:39:21.305Z,36.81
2024-05-09T03:40:26.336Z,36.84
2024-05-09T03:41:22.453Z,36.78
2024-05-09T03:42:21.354Z,36.85
2024-05-09T03:43:21.350Z,36.80
2024-05-09T03:44:21.413Z,36.80
2024-05-09T03:45:21.374Z,36.82
2024-05-09T03:46:21.383Z,36.82
2024-05-09T03:47:21.542Z,36.81
2024-05-09T03:48:21.742Z,36.76
2024-05-09T03:49:21.505Z,36.79
2024-05-09T03:50:26.177Z,36.82
2024-05-09T03:51:22.407Z,36.78
2024-05-09T03:52:21.421Z,36.81
2024-05-09T03:53:21.483Z,36.79
2024-05-09T03:54:21.445Z,36.80
2024-05-09T03:55:21.441Z,36.82
2024-05-09T03:56:21.506Z,36.81
2024-05-09T03:57:21.451Z,36.77
2024-05-09T03:58:21.470Z,36.78
2024-05-09T03:59:21.500Z,36.82
2024-05-09T04:00:26.689Z,36.82
2024-05-09T04:01:22.552Z,36.80
2024-05-09T04:02:21.761Z,36.80
2024-05-09T04:03:21.760Z,36.82
2024-05-09T04:04:21.605Z,36.82
2024-05-09T04:05:21.646Z,36.80
2024-05-09T04:06:21.562Z,36.80
2024-05-09T04:07:21.562Z,36.81
2024-05-09T04:08:21.717Z,36.76
2024-05-09T04:09:21.598Z,36.78
2024-05-09T04:11:21.730Z,36.76
2024-05-09T04:12:21.738Z,36.80
2024-05-09T04:13:21.634Z,36.80
2024-05-09T04:14:21.682Z,36.79
2024-05-09T04:15:21.686Z,36.82
2024-05-09T04:16:21.695Z,36.82
2024-05-09T04:17:21.728Z,36.80
2024-05-09T04:18:21.814Z,36.77
2024-05-09T04:19:22.837Z,36.79
2024-05-09T04:20:37.599Z,36.81
2024-05-09T04:21:31.049Z,36.85
2024-05-09T04:22:30.184Z,36.81
2024-05-09T04:23:30.162Z,36.83
2024-05-09T04:24:30.077Z,36.77
2024-05-09T04:25:30.087Z,36.77
2024-05-09T04:26:30.196Z,36.78
2024-05-09T04:27:30.062Z,36.78
2024-05-09T04:28:30.065Z,36.76
2024-05-09T04:29:30.071Z,36.75
2024-05-09T04:30:36.790Z,36.79
2024-05-09T04:31:42.164Z,36.78
2024-05-09T04:32:42.449Z,36.80
2024-05-09T04:33:42.252Z,36.81
2024-05-09T04:34:42.172Z,36.78
2024-05-09T04:35:42.671Z,36.76
2024-05-09T04:36:44.546Z,36.76
2024-05-09T04:37:42.321Z,36.73
2024-05-09T04:38:42.333Z,36.75
2024-05-09T04:39:42.368Z,36.76
2024-05-09T04:40:42.462Z,36.72
2024-05-09T04:41:42.420Z,36.73
2024-05-09T04:42:42.404Z,36.73
2024-05-09T04:43:42.468Z,36.74
2024-05-09T04:44:42.436Z,36.72
2024-05-09T04:45:42.498Z,36.70
2024-05-09T04:46:42.479Z,36.73
2024-05-09T04:47:42.642Z,36.70
2024-05-09T04:48:42.637Z,36.70
2024-05-09T04:49:42.611Z,36.73
2024-05-09T04:50:42.676Z,36.81
2024-05-09T04:51:42.574Z,36.77
2024-05-09T04:52:42.618Z,36.79
2024-05-09T04:53:42.863Z,36.78
2024-05-09T04:54:42.639Z,36.78
2024-05-09T04:55:42.657Z,36.70
2024-05-09T04:56:42.719Z,36.77
2024-05-09T04:57:42.711Z,36.77
2024-05-09T04:58:42.697Z,36.81
2024-05-09T04:59:42.715Z,36.79
2024-05-09T05:00:42.864Z,36.83
2024-05-09T05:01:42.744Z,36.79
2024-05-09T05:02:43.348Z,36.81
2024-05-09T05:03:42.959Z,36.80
2024-05-09T05:04:42.914Z,36.86
2024-05-09T05:05:43.417Z,36.80
2024-05-09T05:06:42.891Z,36.84
2024-05-09T05:07:42.874Z,36.82
2024-05-09T05:08:42.946Z,36.87
2024-05-09T05:09:42.912Z,36.87
2024-05-09T05:10:42.964Z,36.82
2024-05-09T05:11:43.095Z,36.82
2024-05-09T05:12:42.985Z,36.81
2024-05-09T05:13:43.010Z,36.76
2024-05-09T05:14:43.044Z,36.80
2024-05-09T05:15:43.052Z,36.80
2024-05-09T05:16:43.051Z,36.82
2024-05-09T05:17:43.356Z,36.79
2024-05-09T05:18:43.132Z,36.77
2024-05-09T05:19:43.204Z,36.77
2024-05-09T05:21:43.181Z,36.80
2024-05-09T05:22:43.248Z,36.77
2024-05-09T05:23:43.251Z,36.81
2024-05-09T05:24:43.217Z,36.79
2024-05-09T05:25:43.441Z,36.78
2024-05-09T05:26:43.307Z,36.81
2024-05-09T05:27:43.456Z,36.83
2024-05-09T05:28:43.297Z,36.83
2024-05-09T05:29:43.383Z,36.83
2024-05-09T05:30:43.341Z,36.82
2024-05-09T05:31:43.414Z,36.83
2024-05-09T05:32:43.979Z,36.84
2024-05-09T05:33:43.546Z,36.83
2024-05-09T05:34:43.457Z,36.87
2024-05-09T05:35:43.642Z,36.82
2024-05-09T05:36:43.501Z,36.86
2024-05-09T05:37:43.559Z,36.91
2024-05-09T05:38:43.693Z,36.88
2024-05-09T05:39:43.563Z,36.89
2024-05-09T05:40:43.632Z,36.89
2024-05-09T05:41:43.692Z,36.89
2024-05-09T05:42:43.662Z,36.91
2024-05-09T05:43:44.033Z,36.92
2024-05-09T05:44:43.716Z,36.91
2024-05-09T05:45:43.725Z,36.91
2024-05-09T05:46:43.737Z,36.93
2024-05-09T05:47:44.005Z,36.88
2024-05-09T05:48:43.814Z,36.92
2024-05-09T05:49:43.831Z,36.96
2024-05-09T05:50:43.880Z,36.89
2024-05-09T05:51:43.861Z,36.88
2024-05-09T05:52:43.894Z,36.87
2024-05-09T05:53:43.894Z,36.90
2024-05-09T05:54:43.927Z,36.90
2024-05-09T05:55:43.954Z,36.90
2024-05-09T05:56:43.984Z,36.91
2024-05-09T05:57:43.992Z,36.94
2024-05-09T05:58:44.116Z,36.89
2024-05-09T05:59:44.103Z,36.90
2024-05-09T06:00:44.957Z,36.94
2024-05-09T06:01:44.146Z,36.94
2024-05-09T06:02:44.337Z,36.95
2024-05-09T06:03:44.317Z,36.94
2024-05-09T06:04:44.266Z,36.93
2024-05-09T06:05:44.700Z,36.98
2024-05-09T06:06:44.215Z,36.93
2024-05-09T06:07:44.402Z,36.89
2024-05-09T06:08:44.345Z,36.90
2024-05-09T06:09:46.060Z,36.90
2024-05-09T06:10:44.438Z,36.90
2024-05-09T06:11:44.374Z,36.88
2024-05-09T06:12:44.279Z,36.89
2024-05-09T06:13:44.372Z,36.95
2024-05-09T06:14:44.286Z,36.89
2024-05-09T06:15:44.275Z,36.88
2024-05-09T06:16:44.359Z,36.88
2024-05-09T06:17:44.340Z,36.87
2024-05-09T06:18:44.385Z,36.90
2024-05-09T06:19:44.326Z,36.87
2024-05-09T06:20:44.603Z,36.88
2024-05-09T06:21:44.233Z,36.88
2024-05-09T06:22:44.267Z,36.84
2024-05-09T06:23:44.252Z,36.86
2024-05-09T06:24:44.208Z,36.83
2024-05-09T06:25:44.278Z,36.81
2024-05-09T06:26:44.264Z,36.85
2024-05-09T06:27:44.210Z,36.86
2024-05-09T06:28:44.299Z,36.80
2024-05-09T06:29:44.214Z,36.76
2024-05-09T06:30:44.188Z,36.82
2024-05-09T06:31:44.277Z,36.82
2024-05-09T06:32:44.336Z,36.80
2024-05-09T06:33:44.287Z,36.76
2024-05-09T06:34:44.320Z,36.83
2024-05-09T06:35:44.523Z,36.76
2024-05-09T06:36:44.180Z,36.79
2024-05-09T06:37:44.478Z,36.80
2024-05-09T06:38:44.246Z,36.80
2024-05-09T06:39:44.154Z,36.80
2024-05-09T06:40:44.781Z,36.81
2024-05-09T06:41:44.172Z,36.76
2024-05-09T06:42:44.168Z,36.77
2024-05-09T06:43:44.127Z,36.77
2024-05-09T06:44:44.121Z,36.80
2024-05-09T06:45:44.127Z,36.77
2024-05-09T06:46:44.181Z,36.73
2024-05-09T06:47:44.250Z,36.76
2024-05-09T06:48:44.309Z,36.80
2024-05-09T06:49:44.168Z,36.83
2024-05-09T06:50:44.145Z,36.79
2024-05-09T06:51:44.098Z,36.86
2024-05-09T06:52:44.141Z,36.80
2024-05-09T06:53:44.144Z,36.78
2024-05-09T06:54:44.078Z,36.74
2024-05-09T06:55:44.145Z,36.76
2024-05-09T06:56:44.164Z,36.78
2024-05-09T06:57:44.094Z,36.77
2024-05-09T06:58:44.104Z,36.74
2024-05-09T06:59:44.130Z,36.73
2024-05-09T07:00:44.139Z,36.76
2024-05-09T07:01:44.081Z,36.73
2024-05-09T07:02:44.253Z,36.72
2024-05-09T07:03:44.130Z,36.71
2024-05-09T07:04:44.155Z,36.69
2024-05-09T07:05:44.412Z,36.72
2024-05-09T07:06:44.156Z,36.67
2024-05-09T07:07:44.087Z,36.74
2024-05-09T07:08:44.158Z,36.69
2024-05-09T07:09:44.122Z,36.72
2024-05-09T07:10:44.195Z,36.71
2024-05-09T07:11:44.189Z,36.73
2024-05-09T07:12:44.322Z,36.71
2024-05-09T07:13:44.100Z,36.69
2024-05-09T07:14:44.147Z,36.68
2024-05-09T07:15:44.125Z,36.72
2024-05-09T07:16:44.111Z,36.74
2024-05-09T07:17:44.267Z,36.73
2024-05-09T07:18:44.240Z,36.75
2024-05-09T07:19:44.141Z,36.74
2024-05-09T07:20:44.163Z,36.70
2024-05-09T07:21:44.084Z,36.69
2024-05-09T07:22:44.120Z,36.66
2024-05-09T07:23:46.843Z,36.67
2024-05-09T07:24:44.058Z,36.65
2024-05-09T07:25:44.079Z,36.63
2024-05-09T07:26:44.130Z,36.67
2024-05-09T07:27:44.324Z,36.63
2024-05-09T07:28:44.082Z,36.63
2024-05-09T07:29:44.871Z,36.60
2024-05-09T07:30:44.044Z,36.56
2024-05-09T07:31:44.062Z,36.61
2024-05-09T07:32:44.469Z,36.60
2024-05-09T07:33:44.150Z,36.61
2024-05-09T07:34:44.016Z,36.62
2024-05-09T07:35:44.068Z,36.59
2024-05-09T07:36:44.004Z,36.65
2024-05-09T07:37:44.032Z,36.59
2024-05-09T07:38:44.171Z,36.60
2024-05-09T07:39:44.008Z,36.63
2024-05-09T07:40:44.019Z,36.56
2024-05-09T07:41:44.109Z,36.58
2024-05-09T07:42:44.006Z,36.55
2024-05-09T07:43:44.009Z,36.55
2024-05-09T07:44:44.041Z,36.55
2024-05-09T07:45:51.314Z,36.53
2024-05-09T07:47:48.456Z,36.58
2024-05-09T07:51:32.094Z,36.51
2024-05-09T07:53:17.191Z,36.49
2024-05-09T07:53:34.458Z,36.45
2024-05-09T07:53:48.819Z,36.43
2024-05-09T07:54:45.126Z,36.48
2024-05-09T07:55:44.089Z,36.43
2024-05-09T07:56:44.220Z,36.44
2024-05-09T07:57:43.971Z,36.43
2024-05-09T07:58:43.924Z,36.42
2024-05-09T07:59:43.921Z,36.44
2024-05-09T08:00:44.006Z,36.38
2024-05-09T08:01:44.106Z,36.35
2024-05-09T08:02:43.928Z,36.42
2024-05-09T08:03:44.078Z,36.40
2024-05-09T08:04:43.999Z,36.40
2024-05-09T08:05:43.943Z,36.47
2024-05-09T08:06:43.914Z,36.48
2024-05-09T08:07:43.955Z,36.45
2024-05-09T08:08:43.882Z,36.45
2024-05-09T08:09:44.018Z,36.46
2024-05-09T08:10:43.941Z,36.46
2024-05-09T08:11:43.956Z,36.48
2024-05-09T08:12:43.987Z,36.50
2024-05-09T08:13:43.886Z,36.45
2024-05-09T08:14:43.925Z,36.49
2024-05-09T08:15:43.915Z,36.49
2024-05-09T08:16:43.863Z,36.49
2024-05-09T08:17:43.917Z,36.45
2024-05-09T08:18:43.919Z,36.48
2024-05-09T08:19:43.975Z,36.46
2024-05-09T08:20:43.870Z,36.49
2024-05-09T08:21:43.882Z,36.43
2024-05-09T08:22:43.937Z,36.47
2024-05-09T08:23:43.876Z,36.43
2024-05-09T08:24:43.917Z,36.43
2024-05-09T08:25:43.876Z,36.44
2024-05-09T08:26:43.884Z,36.46
2024-05-09T08:27:43.907Z,36.47
2024-05-09T08:28:43.878Z,36.44
2024-05-09T08:29:43.933Z,36.40
2024-05-09T08:30:43.974Z,36.38
2024-05-09T08:31:43.950Z,36.39
2024-05-09T08:32:43.963Z,36.38
2024-05-09T08:33:44.106Z,36.37
2024-05-09T08:34:43.855Z,36.38
2024-05-09T08:35:43.838Z,36.38
2024-05-09T08:36:43.864Z,36.32
2024-05-09T08:37:43.906Z,36.34
2024-05-09T08:38:43.816Z,36.37
2024-05-09T08:39:43.843Z,36.35
2024-05-09T08:40:43.905Z,36.31
2024-05-09T08:41:43.809Z,36.29
2024-05-09T08:42:43.833Z,36.37
2024-05-09T08:43:43.804Z,36.32
2024-05-09T08:44:43.811Z,36.32
2024-05-09T08:45:45.226Z,36.31
2024-05-09T08:46:43.805Z,36.31
2024-05-09T08:47:44.019Z,36.32
2024-05-09T08:48:43.924Z,36.24
2024-05-09T08:49:43.823Z,36.25
2024-05-09T08:50:44.627Z,36.22
2024-05-09T08:51:43.780Z,36.22
2024-05-09T08:52:43.761Z,36.20
2024-05-09T08:53:43.799Z,36.20
2024-05-09T08:54:43.856Z,36.19
2024-05-09T08:55:44.492Z,36.15
2024-05-09T08:56:43.744Z,36.15
2024-05-09T08:57:43.808Z,36.15
2024-05-09T08:58:43.714Z,36.15
2024-05-09T08:59:43.734Z,36.11
2024-05-09T09:00:43.869Z,36.09
2024-05-09T09:01:43.798Z,36.06
2024-05-09T09:02:43.771Z,36.05
2024-05-09T09:03:43.913Z,36.09
2024-05-09T09:04:43.845Z,36.06
2024-05-09T09:05:43.739Z,36.05
2024-05-09T09:06:43.757Z,36.04
2024-05-09T09:07:43.711Z,36.02
2024-05-09T09:08:43.754Z,36.04
2024-05-09T09:09:43.791Z,36.04
2024-05-09T09:10:43.772Z,36.03
2024-05-09T09:11:43.794Z,35.99
2024-05-09T09:12:43.776Z,35.99
2024-05-09T09:13:43.759Z,35.98
2024-05-09T09:14:43.782Z,35.95
2024-05-09T09:15:43.800Z,35.91
2024-05-09T09:16:43.787Z,35.92
2024-05-09T09:17:43.972Z,35.88
2024-05-09T09:18:44.097Z,35.92
2024-05-09T09:19:43.877Z,35.91
2024-05-09T09:20:43.973Z,35.89
2024-05-09T09:21:43.921Z,35.91
2024-05-09T09:22:43.862Z,35.86
2024-05-09T09:23:43.865Z,35.89
2024-05-09T09:24:43.917Z,35.89
2024-05-09T09:25:43.866Z,35.85
2024-05-09T09:26:43.838Z,35.85
2024-05-09T09:27:43.871Z,35.87
2024-05-09T09:28:43.862Z,35.85
2024-05-09T09:29:43.864Z,35.86
2024-05-09T09:30:43.980Z,35.82
2024-05-09T09:31:43.904Z,35.85
2024-05-09T09:32:43.973Z,35.89
2024-05-09T09:33:44.124Z,35.81
2024-05-09T09:34:44.003Z,35.81
2024-05-09T09:35:43.925Z,35.80
2024-05-09T09:36:43.946Z,35.81
2024-05-09T09:37:43.922Z,35.79
2024-05-09T09:38:43.970Z,35.79
2024-05-09T09:39:43.962Z,35.79
2024-05-09T09:40:48.584Z,35.79
2024-05-09T09:41:44.905Z,35.80
2024-05-09T09:42:43.926Z,35.81
2024-05-09T09:43:43.855Z,35.79
2024-05-09T09:44:47.766Z,35.80
2024-05-09T09:45:44.934Z,35.80
2024-05-09T09:46:43.825Z,35.76
2024-05-09T09:47:43.914Z,35.75
2024-05-09T09:48:44.005Z,35.78
2024-05-09T09:49:43.863Z,35.78
2024-05-09T09:50:43.801Z,35.79
2024-05-09T09:51:43.917Z,35.77
2024-05-09T09:52:43.768Z,35.79
2024-05-09T09:53:43.784Z,35.82
2024-05-09T09:54:43.897Z,35.76
2024-05-09T09:55:43.734Z,35.77
2024-05-09T09:56:43.708Z,35.79
2024-05-09T09:57:43.866Z,35.72
2024-05-09T09:58:43.688Z,35.73
2024-05-09T09:59:43.668Z,35.70
2024-05-09T10:00:43.937Z,35.67
2024-05-09T10:01:43.730Z,35.72
2024-05-09T10:02:43.680Z,35.70
2024-05-09T10:03:43.746Z,35.64
2024-05-09T10:04:43.733Z,35.67
2024-05-09T10:05:46.311Z,35.70
2024-05-09T10:06:43.606Z,35.71
2024-05-09T10:07:43.565Z,35.69
2024-05-09T10:08:43.885Z,35.64
2024-05-09T10:09:43.591Z,35.63
2024-05-09T10:10:43.769Z,35.59
2024-05-09T10:11:49.191Z,35.66
2024-05-09T10:12:44.476Z,35.62
2024-05-09T10:13:43.487Z,35.67
2024-05-09T10:14:43.462Z,35.61
2024-05-09T10:15:43.442Z,35.61
2024-05-09T10:16:43.489Z,35.66
2024-05-09T10:17:43.530Z,35.68
2024-05-09T10:18:43.656Z,35.64
2024-05-09T10:19:43.427Z,35.63
2024-05-09T10:20:43.385Z,35.65
2024-05-09T10:21:43.436Z,35.62
2024-05-09T10:22:43.362Z,35.60
2024-05-09T10:23:43.425Z,35.62
2024-05-09T10:24:43.334Z,35.58
2024-05-09T10:25:43.313Z,35.60
2024-05-09T10:26:43.349Z,35.63
2024-05-09T10:27:43.319Z,35.61
2024-05-09T10:28:43.328Z,35.61
2024-05-09T10:29:43.283Z,35.66
2024-05-09T10:30:43.652Z,35.61
2024-05-09T10:31:43.479Z,35.60
2024-05-09T10:32:43.380Z,35.62
2024-05-09T10:33:43.391Z,35.56
2024-05-09T10:34:43.360Z,35.61
2024-05-09T10:35:43.172Z,35.56
2024-05-09T10:36:43.254Z,35.56
2024-05-09T10:37:43.126Z,35.50
2024-05-09T10:38:43.246Z,35.55
2024-05-09T10:39:43.195Z,35.53
2024-05-09T10:40:43.137Z,35.52
2024-05-09T10:41:43.120Z,35.54
2024-05-09T10:42:43.189Z,35.57
2024-05-09T10:43:43.094Z,35.53
2024-05-09T10:44:43.074Z,35.47
2024-05-09T10:45:43.105Z,35.55
2024-05-09T10:46:43.068Z,35.55
2024-05-09T10:47:43.212Z,35.52
2024-05-09T10:48:43.240Z,35.56
2024-05-09T10:49:43.125Z,35.48
2024-05-09T10:50:43.061Z,35.51
2024-05-09T10:51:43.097Z,35.56
2024-05-09T10:52:43.028Z,35.51
2024-05-09T10:53:43.479Z,35.54
2024-05-09T10:54:43.078Z,35.50
2024-05-09T10:55:42.980Z,35.48
2024-05-09T10:56:43.016Z,35.50
2024-05-09T10:57:43.036Z,35.51
2024-05-09T10:58:43.014Z,35.55
2024-05-09T10:59:42.926Z,35.50
2024-05-09T11:00:43.113Z,35.49
2024-05-09T11:01:43.087Z,35.49
2024-05-09T11:02:43.242Z,35.49
2024-05-09T11:03:43.220Z,35.49
2024-05-09T11:04:43.016Z,35.49
2024-05-09T11:05:43.201Z,35.44
2024-05-09T11:06:42.980Z,35.48
2024-05-09T11:07:42.905Z,35.43
2024-05-09T11:08:42.884Z,35.46
2024-05-09T11:09:42.925Z,35.43
2024-05-09T11:10:42.997Z,35.42
2024-05-09T11:11:42.881Z,35.42
2024-05-09T11:12:42.877Z,35.40
2024-05-09T11:13:42.817Z,35.47
2024-05-09T11:14:42.828Z,35.38
2024-05-09T11:15:42.854Z,35.38
2024-05-09T11:16:42.794Z,35.43
2024-05-09T11:17:42.814Z,35.40
2024-05-09T11:18:42.875Z,35.45
2024-05-09T11:19:42.830Z,35.41
2024-05-09T11:20:42.830Z,35.38
2024-05-09T11:21:42.820Z,35.36
2024-05-09T11:22:42.677Z,35.40
2024-05-09T11:23:42.675Z,35.40
2024-05-09T11:24:42.697Z,35.39
2024-05-09T11:25:42.665Z,35.38
2024-05-09T11:26:42.676Z,35.36
2024-05-09T11:27:42.636Z,35.37
2024-05-09T11:28:42.602Z,35.37
2024-05-09T11:29:42.616Z,35.36
2024-05-09T11:30:42.630Z,35.36
2024-05-09T11:31:42.685Z,35.36
2024-05-09T11:32:42.619Z,35.36
2024-05-09T11:33:42.640Z,35.32
2024-05-09T11:34:42.623Z,35.35
2024-05-09T11:35:42.518Z,35.34
2024-05-09T11:36:42.672Z,35.30
2024-05-09T11:37:42.531Z,35.34
2024-05-09T11:38:42.587Z,35.33
2024-05-09T11:39:42.551Z,35.30
2024-05-09T11:40:42.579Z,35.24
2024-05-09T11:41:42.454Z,35.28
2024-05-09T11:42:42.483Z,35.30
2024-05-09T11:43:42.469Z,35.32
2024-05-09T11:44:42.393Z,35.29
2024-05-09T11:45:42.433Z,35.28
2024-05-09T11:46:42.472Z,35.28
2024-05-09T11:47:42.652Z,35.27
2024-05-09T11:48:42.735Z,35.32
2024-05-09T11:49:42.580Z,35.30
2024-05-09T11:50:42.614Z,35.27
2024-05-09T11:51:42.735Z,35.27
2024-05-09T11:52:42.634Z,35.29
2024-05-09T11:53:42.939Z,35.22
2024-05-09T11:54:42.758Z,35.24
2024-05-09T11:55:42.746Z,35.26
2024-05-09T11:56:42.751Z,35.23
2024-05-09T11:57:42.878Z,35.22
2024-05-09T11:58:42.771Z,35.22
2024-05-09T11:59:42.815Z,35.27
2024-05-09T12:00:43.011Z,35.24
2024-05-09T12:01:42.992Z,35.21
2024-05-09T12:02:42.835Z,35.21
2024-05-09T12:03:43.141Z,35.27
2024-05-09T12:04:43.170Z,35.24
2024-05-09T12:05:43.186Z,35.22
2024-05-09T12:06:43.032Z,35.20
2024-05-09T12:07:43.011Z,35.21
2024-05-09T12:08:43.049Z,35.21
2024-05-09T12:09:43.087Z,35.21
2024-05-09T12:10:43.241Z,35.18
2024-05-09T12:11:43.198Z,35.19
2024-05-09T12:12:43.206Z,35.21
2024-05-09T12:13:43.218Z,35.21
2024-05-09T12:14:43.256Z,35.15
2024-05-09T12:15:43.315Z,35.22
2024-05-09T12:16:43.465Z,35.19
2024-05-09T12:17:44.172Z,35.20
2024-05-09T12:18:43.622Z,35.15
2024-05-09T12:19:43.564Z,35.15
2024-05-09T12:20:43.581Z,35.15
2024-05-09T12:21:43.675Z,35.20
2024-05-09T12:22:43.695Z,35.14
2024-05-09T12:23:43.769Z,35.12
2024-05-09T12:24:43.950Z,35.12
2024-05-09T12:25:43.867Z,35.15
2024-05-09T12:26:43.921Z,35.15
2024-05-09T12:27:43.979Z,35.18
2024-05-09T12:28:44.453Z,35.15
2024-05-09T12:29:44.040Z,35.17
2024-05-09T12:30:44.202Z,35.15
2024-05-09T12:31:44.123Z,35.17
2024-05-09T12:32:44.295Z,35.13
2024-05-09T12:33:44.345Z,35.17
2024-05-09T12:34:44.291Z,35.13
2024-05-09T12:35:46.658Z,35.13
2024-05-09T12:36:44.319Z,35.11
2024-05-09T12:37:44.274Z,35.13
2024-05-09T12:38:44.414Z,35.09
2024-05-09T12:39:44.264Z,35.13
2024-05-09T12:40:44.320Z,35.07
2024-05-09T12:41:44.230Z,35.13
2024-05-09T12:42:44.307Z,35.11
2024-05-09T12:43:44.203Z,35.13
2024-05-09T12:44:44.224Z,35.11
2024-05-09T12:45:44.263Z,35.07
2024-05-09T12:46:44.174Z,35.10
2024-05-09T12:47:44.283Z,35.08
2024-05-09T12:48:44.387Z,35.06
2024-05-09T12:49:44.304Z,35.09
2024-05-09T12:50:44.257Z,35.10
2024-05-09T12:51:44.162Z,35.06
2024-05-09T12:52:44.124Z,35.08
2024-05-09T12:53:44.113Z,35.09
2024-05-09T12:54:44.124Z,35.05
2024-05-09T12:55:52.756Z,35.04
2024-05-09T12:56:45.048Z,35.08
2024-05-09T12:57:44.112Z,35.06
2024-05-09T12:58:44.041Z,35.05
2024-05-09T12:59:44.044Z,35.08
2024-05-09T13:00:44.200Z,35.04
2024-05-09T13:01:44.081Z,35.06
2024-05-09T13:02:44.039Z,35.06
2024-05-09T13:03:44.139Z,35.05